createdAt,value
2019-01-12T00:00:17.852Z,85.48
2019-01-12T00:01:17.844Z,85.79
2019-01-12T00:02:17.830Z,85.48
2019-01-12T00:03:17.816Z,84.61
2019-01-12T00:04:17.806Z,84.92
2019-01-12T00:05:17.795Z,84.75
2019-01-12T00:06:17.788Z,85.38
2019-01-12T00:07:17.788Z,85.65
2019-01-12T00:08:17.775Z,85.69
2019-01-12T00:09:17.753Z,85.48
2019-01-12T00:10:17.741Z,85.48
2019-01-12T00:11:17.730Z,85.34
2019-01-12T00:12:17.722Z,85.69
2019-01-12T00:13:17.727Z,85.48
2019-01-12T00:14:17.698Z,85.38
2019-01-12T00:15:17.689Z,85.69
2019-01-12T00:16:17.676Z,86.21
2019-01-12T00:17:17.666Z,86.00
2019-01-12T00:18:17.662Z,85.89
2019-01-12T00:19:17.649Z,85.79
2019-01-12T00:20:17.635Z,86.31
2019-01-12T00:21:17.623Z,86.41
2019-01-12T00:22:17.612Z,85.48
2019-01-12T00:23:17.602Z,84.55
2019-01-12T00:24:17.593Z,84.96
2019-01-12T00:25:17.586Z,84.86
2019-01-12T00:26:17.571Z,84.75
2019-01-12T00:27:17.560Z,85.06
2019-01-12T00:28:17.544Z,84.51
2019-01-12T00:29:17.534Z,84.86
2019-01-12T00:30:17.524Z,84.34
2019-01-12T00:31:17.522Z,83.93
2019-01-12T00:32:17.516Z,84.13
2019-01-12T00:33:17.489Z,84.13
2019-01-12T00:34:17.479Z,83.72
2019-01-12T00:35:17.470Z,84.13
2019-01-12T00:36:17.463Z,84.23
2019-01-12T00:37:17.469Z,84.03
2019-01-12T00:38:17.439Z,83.93
2019-01-12T00:39:17.427Z,84.03
2019-01-12T00:40:17.417Z,84.13
2019-01-12T00:41:17.403Z,84.13
2019-01-12T00:42:17.392Z,84.34
2019-01-12T00:43:17.377Z,84.23
2019-01-12T00:44:17.368Z,83.83
2019-01-12T00:45:17.355Z,84.13
2019-01-12T00:46:17.348Z,83.31
2019-01-12T00:47:17.334Z,83.83
2019-01-12T00:48:17.327Z,83.83
2019-01-12T00:49:17.319Z,83.00
2019-01-12T00:50:17.300Z,83.00
2019-01-12T00:51:17.290Z,83.31
2019-01-12T00:52:17.278Z,83.51
2019-01-12T00:53:17.269Z,83.00
2019-01-12T00:54:17.262Z,83.76
2019-01-12T00:55:17.248Z,83.31
2019-01-12T00:56:17.235Z,83.41
2019-01-12T00:57:17.229Z,83.65
2019-01-12T00:58:17.215Z,83.10
2019-01-12T00:59:17.214Z,83.31
2019-01-12T01:00:17.211Z,83.45
2019-01-12T01:01:17.183Z,83.55
2019-01-12T01:02:17.171Z,83.97
2019-01-12T01:03:17.162Z,83.65
2019-01-12T01:04:17.150Z,83.97
2019-01-12T01:05:17.145Z,84.34
2019-01-12T01:06:17.130Z,83.41
2019-01-12T01:07:17.122Z,84.07
2019-01-12T01:08:17.107Z,84.34
2019-01-12T01:09:17.099Z,84.13
2019-01-12T01:10:17.086Z,83.93
2019-01-12T01:11:17.075Z,84.03
2019-01-12T01:12:17.064Z,83.72
2019-01-12T01:13:17.059Z,84.17
2019-01-12T01:14:17.078Z,84.13
2019-01-12T01:15:17.054Z,84.03
2019-01-12T01:16:17.026Z,84.59
2019-01-12T01:17:17.012Z,84.38
2019-01-12T01:18:17.000Z,84.23
2019-01-12T01:19:16.995Z,84.48
2019-01-12T01:20:16.980Z,84.23
2019-01-12T01:21:16.969Z,84.28
2019-01-12T01:22:16.958Z,83.72
2019-01-12T01:23:16.949Z,84.28
2019-01-12T01:24:16.936Z,83.55
2019-01-12T01:25:16.930Z,83.72
2019-01-12T01:26:16.916Z,83.55
2019-01-12T01:27:16.903Z,83.03
2019-01-12T01:28:16.898Z,83.41
2019-01-12T01:29:16.888Z,83.76
2019-01-12T01:30:16.875Z,83.65
2019-01-12T01:31:16.872Z,83.51
2019-01-12T01:32:16.852Z,83.34
2019-01-12T01:33:16.846Z,83.03
2019-01-12T01:34:16.829Z,83.24
2019-01-12T01:35:16.825Z,83.65
2019-01-12T01:36:16.813Z,83.83
2019-01-12T01:37:16.797Z,83.45
2019-01-12T01:38:16.786Z,83.83
2019-01-12T01:39:16.773Z,83.45
2019-01-12T01:40:16.767Z,83.14
2019-01-12T01:41:16.760Z,83.45
2019-01-12T01:42:16.747Z,83.86
2019-01-12T01:43:16.733Z,83.65
2019-01-12T01:44:16.724Z,83.76
2019-01-12T01:45:16.711Z,83.86
2019-01-12T01:46:16.702Z,84.17
2019-01-12T01:47:16.688Z,84.28
2019-01-12T01:48:16.676Z,83.76
2019-01-12T01:49:16.668Z,83.55
2019-01-12T01:50:16.655Z,83.65
2019-01-12T01:51:16.647Z,83.10
2019-01-12T01:52:16.637Z,82.93
2019-01-12T01:53:16.625Z,83.14
2019-01-12T01:54:16.628Z,83.55
2019-01-12T01:55:16.643Z,83.65
2019-01-12T01:56:16.859Z,83.65
2019-01-12T01:57:17.337Z,83.45
2019-01-12T01:58:16.570Z,84.17
2019-01-12T01:59:16.562Z,83.86
2019-01-12T02:00:16.561Z,83.48
2019-01-12T02:01:16.539Z,83.65
2019-01-12T02:02:16.528Z,83.55
2019-01-12T02:03:16.519Z,84.00
2019-01-12T02:04:16.508Z,84.07
2019-01-12T02:05:16.503Z,84.28
2019-01-12T02:06:16.522Z,84.28
2019-01-12T02:07:16.480Z,83.65
2019-01-12T02:08:16.466Z,83.55
2019-01-12T02:09:16.460Z,83.97
2019-01-12T02:10:16.442Z,83.76
2019-01-12T02:11:16.432Z,83.55
2019-01-12T02:12:16.420Z,83.65
2019-01-12T02:13:16.410Z,83.45
2019-01-12T02:14:16.397Z,83.34
2019-01-12T02:15:16.392Z,83.76
2019-01-12T02:16:16.377Z,83.14
2019-01-12T02:17:16.373Z,83.24
2019-01-12T02:18:16.354Z,83.14
2019-01-12T02:19:16.347Z,83.14
2019-01-12T02:20:16.333Z,83.03
2019-01-12T02:21:16.326Z,83.14
2019-01-12T02:22:16.316Z,82.82
2019-01-12T02:23:16.300Z,82.82
2019-01-12T02:24:16.290Z,82.93
2019-01-12T02:25:16.280Z,83.24
2019-01-12T02:26:16.292Z,82.93
2019-01-12T02:27:16.257Z,83.14
2019-01-12T02:28:16.251Z,82.82
2019-01-12T02:29:16.243Z,82.93
2019-01-12T02:30:16.329Z,82.82
2019-01-12T02:31:16.216Z,82.93
2019-01-12T02:32:16.209Z,83.03
2019-01-12T02:33:16.194Z,83.03
2019-01-12T02:34:16.260Z,83.03
2019-01-12T02:35:16.178Z,83.03
2019-01-12T02:36:16.162Z,82.93
2019-01-12T02:37:16.154Z,82.93
2019-01-12T02:38:16.240Z,82.93
2019-01-12T02:39:16.146Z,83.14
2019-01-12T02:40:16.121Z,82.82
2019-01-12T02:41:16.113Z,82.82
2019-01-12T02:42:16.099Z,83.03
2019-01-12T02:43:16.086Z,82.93
2019-01-12T02:44:16.078Z,82.93
2019-01-12T02:45:16.067Z,82.93
2019-01-12T02:46:17.207Z,82.82
2019-01-12T02:47:16.048Z,83.03
2019-01-12T02:48:16.034Z,82.86
2019-01-12T02:49:16.024Z,82.34
2019-01-12T02:50:16.014Z,82.34
2019-01-12T02:51:16.007Z,82.72
2019-01-12T02:52:15.994Z,82.24
2019-01-12T02:53:15.982Z,82.45
2019-01-12T02:54:15.969Z,81.79
2019-01-12T02:55:15.960Z,81.82
2019-01-12T02:56:15.948Z,81.72
2019-01-12T02:57:15.937Z,81.62
2019-01-12T02:58:15.932Z,81.41
2019-01-12T02:59:15.915Z,81.82
2019-01-12T03:00:15.911Z,81.48
2019-01-12T03:01:15.894Z,80.99
2019-01-12T03:02:15.899Z,81.41
2019-01-12T03:03:15.875Z,81.51
2019-01-12T03:04:15.866Z,81.51
2019-01-12T03:05:15.852Z,81.72
2019-01-12T03:06:15.841Z,81.30
2019-01-12T03:07:15.892Z,81.62
2019-01-12T03:08:15.832Z,81.27
2019-01-12T03:09:15.813Z,81.10
2019-01-12T03:10:15.797Z,81.30
2019-01-12T03:11:15.848Z,81.30
2019-01-12T03:12:15.776Z,81.37
2019-01-12T03:13:15.764Z,80.79
2019-01-12T03:14:15.754Z,80.68
2019-01-12T03:15:15.851Z,80.58
2019-01-12T03:16:15.744Z,81.30
2019-01-12T03:17:15.724Z,81.62
2019-01-12T03:18:15.714Z,81.10
2019-01-12T03:19:15.712Z,80.89
2019-01-12T03:20:15.689Z,81.72
2019-01-12T03:21:15.680Z,81.30
2019-01-12T03:22:15.671Z,81.37
2019-01-12T03:23:15.659Z,80.89
2019-01-12T03:24:15.649Z,81.20
2019-01-12T03:25:18.275Z,81.30
2019-01-12T03:26:15.626Z,81.51
2019-01-12T03:27:15.616Z,81.41
2019-01-12T03:28:15.607Z,81.30
2019-01-12T03:29:15.594Z,81.20
2019-01-12T03:30:15.584Z,81.82
2019-01-12T03:31:15.578Z,81.62
2019-01-12T03:32:15.573Z,81.51
2019-01-12T03:33:15.580Z,81.62
2019-01-12T03:34:15.542Z,82.03
2019-01-12T03:35:15.531Z,81.93
2019-01-12T03:36:15.520Z,81.93
2019-01-12T03:37:15.508Z,83.17
2019-01-12T03:38:15.501Z,83.17
2019-01-12T03:39:15.492Z,82.45
2019-01-12T03:40:15.479Z,82.45
2019-01-12T03:41:15.470Z,83.17
2019-01-12T03:42:15.462Z,82.97
2019-01-12T03:43:15.446Z,82.86
2019-01-12T03:44:15.438Z,82.97
2019-01-12T03:45:15.427Z,82.97
2019-01-12T03:46:15.412Z,83.17
2019-01-12T03:47:15.430Z,83.07
2019-01-12T03:48:15.447Z,83.07
2019-01-12T03:49:15.385Z,83.17
2019-01-12T03:50:15.372Z,82.65
2019-01-12T03:51:15.376Z,82.34
2019-01-12T03:52:15.347Z,82.97
2019-01-12T03:53:15.345Z,83.17
2019-01-12T03:54:15.327Z,82.34
2019-01-12T03:55:15.335Z,82.24
2019-01-12T03:56:15.313Z,82.45
2019-01-12T03:57:15.302Z,82.86
2019-01-12T03:58:15.283Z,83.17
2019-01-12T03:59:15.278Z,82.14
2019-01-12T04:00:15.263Z,81.82
2019-01-12T04:01:15.251Z,81.72
2019-01-12T04:02:15.250Z,81.82
2019-01-12T04:03:15.244Z,81.93
2019-01-12T04:04:15.224Z,81.93
2019-01-12T04:05:15.213Z,81.51
2019-01-12T04:06:15.198Z,81.10
2019-01-12T04:07:15.191Z,81.30
2019-01-12T04:08:15.185Z,81.30
2019-01-12T04:09:15.166Z,81.30
2019-01-12T04:10:15.155Z,81.20
2019-01-12T04:11:15.143Z,81.10
2019-01-12T04:12:15.133Z,81.62
2019-01-12T04:13:15.126Z,81.82
2019-01-12T04:14:15.114Z,81.72
2019-01-12T04:15:15.106Z,81.93
2019-01-12T04:16:15.089Z,82.03
2019-01-12T04:17:15.082Z,82.24
2019-01-12T04:18:15.067Z,82.86
2019-01-12T04:19:15.059Z,82.34
2019-01-12T04:20:15.051Z,82.34
2019-01-12T04:21:15.074Z,82.14
2019-01-12T04:22:15.028Z,82.14
2019-01-12T04:23:15.015Z,82.03
2019-01-12T04:24:15.007Z,82.24
2019-01-12T04:25:15.001Z,81.72
2019-01-12T04:26:14.988Z,82.03
2019-01-12T04:27:14.979Z,82.34
2019-01-12T04:28:14.963Z,82.14
2019-01-12T04:29:14.951Z,82.14
2019-01-12T04:30:14.946Z,82.14
2019-01-12T04:31:14.933Z,83.17
2019-01-12T04:32:14.921Z,82.97
2019-01-12T04:33:14.915Z,82.97
2019-01-12T04:34:14.897Z,82.86
2019-01-12T04:35:14.897Z,82.97
2019-01-12T04:36:14.879Z,82.97
2019-01-12T04:37:14.867Z,83.07
2019-01-12T04:38:14.865Z,83.17
2019-01-12T04:39:14.846Z,82.97
2019-01-12T04:40:14.837Z,83.38
2019-01-12T04:41:14.826Z,83.07
2019-01-12T04:42:14.835Z,83.17
2019-01-12T04:43:14.807Z,83.17
2019-01-12T04:44:14.789Z,83.48
2019-01-12T04:45:14.783Z,83.69
2019-01-12T04:46:14.769Z,83.59
2019-01-12T04:47:14.758Z,83.38
2019-01-12T04:48:14.749Z,83.48
2019-01-12T04:49:14.741Z,83.80
2019-01-12T04:50:14.742Z,83.69
2019-01-12T04:51:14.716Z,83.69
2019-01-12T04:52:14.713Z,83.48
2019-01-12T04:53:14.693Z,84.00
2019-01-12T04:54:14.682Z,83.80
2019-01-12T04:55:14.673Z,84.11
2019-01-12T04:56:14.663Z,84.31
2019-01-12T04:57:14.652Z,84.63
2019-01-12T04:58:14.639Z,84.52
2019-01-12T04:59:14.631Z,84.63
2019-01-12T05:00:14.620Z,84.63
2019-01-12T05:01:14.607Z,84.94
2019-01-12T05:02:14.602Z,85.14
2019-01-12T05:03:14.616Z,85.04
2019-01-12T05:04:14.576Z,84.63
2019-01-12T05:05:14.567Z,85.04
2019-01-12T05:06:14.557Z,84.94
2019-01-12T05:07:14.548Z,84.94
2019-01-12T05:08:14.539Z,85.04
2019-01-12T05:09:14.525Z,84.83
2019-01-12T05:10:14.514Z,84.83
2019-01-12T05:11:14.506Z,84.94
2019-01-12T05:12:14.494Z,85.04
2019-01-12T05:13:14.495Z,85.04
2019-01-12T05:14:14.471Z,85.14
2019-01-12T05:15:14.460Z,85.25
2019-01-12T05:16:14.447Z,84.42
2019-01-12T05:17:14.438Z,84.63
2019-01-12T05:18:14.433Z,84.42
2019-01-12T05:19:14.438Z,84.94
2019-01-12T05:20:14.409Z,84.94
2019-01-12T05:21:14.395Z,84.94
2019-01-12T05:22:14.384Z,84.83
2019-01-12T05:23:14.376Z,85.04
2019-01-12T05:24:14.363Z,85.25
2019-01-12T05:25:14.361Z,85.25
2019-01-12T05:26:14.344Z,85.04
2019-01-12T05:27:14.333Z,85.14
2019-01-12T05:28:14.321Z,84.94
2019-01-12T05:29:14.313Z,85.04
2019-01-12T05:30:14.299Z,84.94
2019-01-12T05:31:14.294Z,85.14
2019-01-12T05:32:14.276Z,84.73
2019-01-12T05:33:14.334Z,84.42
2019-01-12T05:34:14.255Z,84.63
2019-01-12T05:35:14.243Z,84.52
2019-01-12T05:36:14.238Z,84.31
2019-01-12T05:37:14.226Z,84.52
2019-01-12T05:38:14.214Z,84.42
2019-01-12T05:39:14.203Z,84.31
2019-01-12T05:40:14.192Z,84.31
2019-01-12T05:41:14.183Z,84.31
2019-01-12T05:42:14.211Z,84.21
2019-01-12T05:43:14.444Z,83.69
2019-01-12T05:44:14.152Z,83.69
2019-01-12T05:45:14.137Z,83.48
2019-01-12T05:46:14.132Z,83.17
2019-01-12T05:47:14.118Z,83.17
2019-01-12T05:48:14.104Z,83.38
2019-01-12T05:49:14.097Z,83.07
2019-01-12T05:50:14.086Z,82.97
2019-01-12T05:51:14.075Z,83.38
2019-01-12T05:52:14.064Z,83.28
2019-01-12T05:53:14.053Z,82.97
2019-01-12T05:54:14.041Z,82.97
2019-01-12T05:55:14.061Z,82.86
2019-01-12T05:56:14.026Z,82.97
2019-01-12T05:57:14.011Z,82.82
2019-01-12T05:58:14.003Z,82.86
2019-01-12T05:59:13.989Z,82.97
2019-01-12T06:00:13.979Z,83.07
2019-01-12T06:01:13.971Z,83.14
2019-01-12T06:02:13.955Z,82.03
2019-01-12T06:03:13.947Z,82.03
2019-01-12T06:04:13.935Z,81.93
2019-01-12T06:05:13.923Z,82.24
2019-01-12T06:06:13.916Z,82.24
2019-01-12T06:07:13.905Z,82.03
2019-01-12T06:08:13.917Z,82.03
2019-01-12T06:09:13.882Z,81.93
2019-01-12T06:10:14.817Z,81.37
2019-01-12T06:11:13.860Z,81.41
2019-01-12T06:12:13.853Z,81.37
2019-01-12T06:13:13.837Z,81.58
2019-01-12T06:14:13.826Z,81.48
2019-01-12T06:15:13.818Z,81.48
2019-01-12T06:16:13.806Z,81.37
2019-01-12T06:17:13.795Z,81.48
2019-01-12T06:18:13.789Z,81.27
2019-01-12T06:19:13.772Z,81.58
2019-01-12T06:20:13.763Z,81.27
2019-01-12T06:21:13.751Z,80.65
2019-01-12T06:22:13.741Z,80.54
2019-01-12T06:23:13.731Z,80.33
2019-01-12T06:24:13.718Z,80.54
2019-01-12T06:25:13.720Z,79.61
2019-01-12T06:26:13.697Z,79.71
2019-01-12T06:27:13.691Z,79.20
2019-01-12T06:28:13.678Z,79.51
2019-01-12T06:29:13.673Z,79.61
2019-01-12T06:30:13.655Z,79.10
2019-01-12T06:31:13.643Z,78.78
2019-01-12T06:32:13.633Z,78.06
2019-01-12T06:33:13.623Z,78.78
2019-01-12T06:34:13.610Z,78.27
2019-01-12T06:35:13.601Z,78.58
2019-01-12T06:36:13.590Z,77.75
2019-01-12T06:37:13.581Z,77.75
2019-01-12T06:38:13.569Z,78.06
2019-01-12T06:39:13.558Z,77.64
2019-01-12T06:40:13.548Z,78.06
2019-01-12T06:41:13.542Z,78.06
2019-01-12T06:42:13.527Z,77.64
2019-01-12T06:43:13.520Z,77.71
2019-01-12T06:44:13.505Z,77.75
2019-01-12T06:45:13.496Z,77.95
2019-01-12T06:46:13.487Z,78.16
2019-01-12T06:47:13.477Z,78.33
2019-01-12T06:48:13.465Z,78.33
2019-01-12T06:49:13.451Z,77.95
2019-01-12T06:50:13.441Z,77.85
2019-01-12T06:51:13.432Z,78.27
2019-01-12T06:52:13.423Z,77.85
2019-01-12T06:53:13.413Z,77.75
2019-01-12T06:54:13.402Z,78.27
2019-01-12T06:55:13.389Z,78.33
2019-01-12T06:56:13.376Z,78.16
2019-01-12T06:57:13.369Z,77.44
2019-01-12T06:58:13.353Z,77.81
2019-01-12T06:59:13.351Z,78.16
2019-01-12T07:00:13.334Z,78.12
2019-01-12T07:01:13.470Z,77.54
2019-01-12T07:02:13.311Z,77.85
2019-01-12T07:03:13.301Z,77.50
2019-01-12T07:04:13.292Z,77.33
2019-01-12T07:05:13.279Z,77.92
2019-01-12T07:06:13.268Z,77.81
2019-01-12T07:07:13.256Z,77.75
2019-01-12T07:08:13.257Z,77.50
2019-01-12T07:09:13.234Z,77.09
2019-01-12T07:10:13.225Z,77.61
2019-01-12T07:11:13.213Z,77.40
2019-01-12T07:12:13.206Z,77.09
2019-01-12T07:13:13.197Z,77.23
2019-01-12T07:14:13.180Z,76.78
2019-01-12T07:15:13.170Z,77.33
2019-01-12T07:16:13.161Z,76.98
2019-01-12T07:17:13.303Z,77.19
2019-01-12T07:18:13.138Z,77.23
2019-01-12T07:19:13.131Z,77.40
2019-01-12T07:20:13.116Z,77.40
2019-01-12T07:21:13.106Z,77.19
2019-01-12T07:22:13.094Z,76.78
2019-01-12T07:23:13.088Z,76.88
2019-01-12T07:24:13.074Z,77.09
2019-01-12T07:25:13.062Z,77.40
2019-01-12T07:26:17.503Z,77.19
2019-01-12T07:27:13.106Z,76.78
2019-01-12T07:28:13.032Z,76.78
2019-01-12T07:29:13.022Z,76.88
2019-01-12T07:30:14.462Z,76.98
2019-01-12T07:31:12.998Z,77.40
2019-01-12T07:32:12.986Z,77.09
2019-01-12T07:33:12.992Z,77.40
2019-01-12T07:34:12.970Z,77.19
2019-01-12T07:35:12.960Z,77.29
2019-01-12T07:36:12.949Z,77.40
2019-01-12T07:37:12.935Z,77.71
2019-01-12T07:38:12.929Z,77.50
2019-01-12T07:39:12.960Z,77.64
2019-01-12T07:40:12.919Z,77.50
2019-01-12T07:41:12.900Z,77.40
2019-01-12T07:42:12.899Z,78.12
2019-01-12T07:43:12.876Z,78.12
2019-01-12T07:44:12.865Z,77.92
2019-01-12T07:45:12.874Z,77.81
2019-01-12T07:46:12.836Z,77.54
2019-01-12T07:47:12.827Z,78.23
2019-01-12T07:48:12.816Z,78.02
2019-01-12T07:49:12.803Z,78.02
2019-01-12T07:50:12.798Z,78.12
2019-01-12T07:51:12.784Z,78.02
2019-01-12T07:52:12.990Z,78.12
2019-01-12T07:53:12.762Z,78.54
2019-01-12T07:54:12.750Z,78.16
2019-01-12T07:55:12.740Z,78.78
2019-01-12T07:56:12.732Z,79.16
2019-01-12T07:57:12.719Z,78.96
2019-01-12T07:58:12.711Z,79.06
2019-01-12T07:59:12.700Z,79.06
2019-01-12T08:00:12.687Z,79.10
2019-01-12T08:01:12.681Z,79.10
2019-01-12T08:02:12.664Z,78.85
2019-01-12T08:03:12.657Z,79.37
2019-01-12T08:04:12.644Z,79.68
2019-01-12T08:05:12.632Z,80.33
2019-01-12T08:06:12.630Z,80.61
2019-01-12T08:07:12.612Z,81.37
2019-01-12T08:08:12.605Z,81.27
2019-01-12T08:09:12.596Z,81.79
2019-01-12T08:10:12.614Z,82.31
2019-01-12T08:11:12.568Z,82.89
2019-01-12T08:12:12.558Z,82.72
2019-01-12T08:13:12.551Z,82.93
2019-01-12T08:14:12.539Z,83.45
2019-01-12T08:15:12.532Z,83.31
2019-01-12T08:16:12.518Z,84.59
2019-01-12T08:17:12.507Z,84.59
2019-01-12T08:18:12.493Z,84.80
2019-01-12T08:19:12.486Z,85.21
2019-01-12T08:20:12.477Z,85.73
2019-01-12T08:21:12.487Z,85.94
2019-01-12T08:22:12.463Z,86.45
2019-01-12T08:23:12.443Z,86.55
2019-01-12T08:24:12.430Z,86.55
2019-01-12T08:25:12.417Z,86.35
2019-01-12T08:26:12.408Z,86.25
2019-01-12T08:27:12.399Z,86.35
2019-01-12T08:28:12.384Z,86.97
2019-01-12T08:29:12.373Z,86.76
2019-01-12T08:30:12.365Z,86.55
2019-01-12T08:31:12.354Z,86.66
2019-01-12T08:32:12.344Z,86.66
2019-01-12T08:33:12.332Z,86.55
2019-01-12T08:34:12.320Z,86.87
2019-01-12T08:35:12.317Z,86.87
2019-01-12T08:36:12.299Z,86.97
2019-01-12T08:37:12.294Z,86.97
2019-01-12T08:38:12.299Z,86.97
2019-01-12T08:39:12.269Z,86.87
2019-01-12T08:40:12.257Z,86.87
2019-01-12T08:41:12.246Z,86.87
2019-01-12T08:42:12.243Z,86.55
2019-01-12T08:43:12.226Z,86.45
2019-01-12T08:44:12.223Z,86.97
2019-01-12T08:45:12.204Z,86.25
2019-01-12T08:46:12.194Z,86.97
2019-01-12T08:47:12.184Z,86.87
2019-01-12T08:48:12.172Z,86.25
2019-01-12T08:49:12.166Z,86.35
2019-01-12T08:50:12.160Z,86.72
2019-01-12T08:51:12.147Z,86.76
2019-01-12T08:52:12.127Z,86.41
2019-01-12T08:53:12.117Z,86.52
2019-01-12T08:54:12.106Z,86.25
2019-01-12T08:55:12.099Z,86.52
2019-01-12T08:56:12.093Z,86.52
2019-01-12T08:57:12.075Z,86.52
2019-01-12T08:58:12.062Z,86.41
2019-01-12T08:59:12.051Z,86.72
2019-01-12T09:00:12.043Z,86.93
2019-01-12T09:01:12.032Z,86.72
2019-01-12T09:02:12.026Z,86.93
2019-01-12T09:03:12.008Z,87.04
2019-01-12T09:04:11.997Z,86.72
2019-01-12T09:05:12.012Z,87.45
2019-01-12T09:06:11.979Z,87.35
2019-01-12T09:07:11.970Z,87.76
2019-01-12T09:08:11.962Z,87.04
2019-01-12T09:09:11.950Z,87.35
2019-01-12T09:10:11.936Z,87.24
2019-01-12T09:11:11.924Z,87.24
2019-01-12T09:12:11.912Z,87.14
2019-01-12T09:13:11.901Z,87.14
2019-01-12T09:14:11.904Z,87.04
2019-01-12T09:15:11.881Z,87.14
2019-01-12T09:16:11.868Z,87.04
2019-01-12T09:17:11.861Z,88.28
2019-01-12T09:18:11.853Z,87.97
2019-01-12T09:19:11.837Z,88.18
2019-01-12T09:20:11.850Z,88.07
2019-01-12T09:21:11.816Z,88.07
2019-01-12T09:22:11.805Z,88.59
2019-01-12T09:23:11.793Z,89.52
2019-01-12T09:24:11.787Z,89.31
2019-01-12T09:25:11.773Z,89.94
2019-01-12T09:26:11.770Z,90.45
2019-01-12T09:27:11.752Z,91.08
2019-01-12T09:28:11.740Z,90.97
2019-01-12T09:29:11.730Z,91.64
2019-01-12T09:30:11.718Z,91.70
2019-01-12T09:31:11.710Z,91.95
2019-01-12T09:32:11.704Z,92.26
2019-01-12T09:33:11.686Z,92.43
2019-01-12T09:34:11.675Z,92.32
2019-01-12T09:35:11.664Z,92.57
2019-01-12T09:36:11.660Z,93.15
2019-01-12T09:37:11.649Z,93.25
2019-01-12T09:38:11.635Z,93.04
2019-01-12T09:39:11.621Z,92.98
2019-01-12T09:40:11.610Z,93.71
2019-01-12T09:41:11.603Z,93.87
2019-01-12T09:42:11.592Z,93.91
2019-01-12T09:43:11.577Z,94.43
2019-01-12T09:44:11.568Z,94.18
2019-01-12T09:45:11.610Z,94.29
2019-01-12T09:46:11.544Z,94.29
2019-01-12T09:47:13.042Z,94.60
2019-01-12T09:48:11.523Z,94.70
2019-01-12T09:49:11.511Z,94.29
2019-01-12T09:50:11.527Z,94.49
2019-01-12T09:51:11.497Z,94.39
2019-01-12T09:52:11.480Z,94.39
2019-01-12T09:53:11.469Z,94.29
2019-01-12T09:54:11.459Z,94.91
2019-01-12T09:55:11.451Z,94.60
2019-01-12T09:56:11.436Z,94.60
2019-01-12T09:57:11.431Z,94.91
2019-01-12T09:58:11.419Z,94.70
2019-01-12T09:59:11.406Z,94.29
2019-01-12T10:00:11.402Z,95.22
2019-01-12T10:01:11.381Z,95.22
2019-01-12T10:02:11.369Z,95.12
2019-01-12T10:03:11.361Z,95.43
2019-01-12T10:04:11.350Z,95.22
2019-01-12T10:05:11.341Z,95.32
2019-01-12T10:06:11.328Z,95.43
2019-01-12T10:07:11.316Z,94.81
2019-01-12T10:08:11.305Z,94.76
2019-01-12T10:09:11.295Z,94.76
2019-01-12T10:10:11.282Z,94.66
2019-01-12T10:11:11.273Z,94.97
2019-01-12T10:12:11.273Z,95.07
2019-01-12T10:13:11.255Z,95.07
2019-01-12T10:14:11.240Z,95.07
2019-01-12T10:15:11.227Z,95.39
2019-01-12T10:16:11.218Z,95.28
2019-01-12T10:17:12.552Z,95.59
2019-01-12T10:18:11.205Z,95.28
2019-01-12T10:19:11.257Z,94.82
2019-01-12T10:20:11.181Z,94.76
2019-01-12T10:21:11.166Z,94.93
2019-01-12T10:22:11.159Z,94.82
2019-01-12T10:23:11.141Z,94.41
2019-01-12T10:24:11.128Z,94.31
2019-01-12T10:25:11.125Z,94.31
2019-01-12T10:26:11.111Z,94.31
2019-01-12T10:27:11.097Z,94.62
2019-01-12T10:28:11.088Z,94.51
2019-01-12T10:29:11.587Z,94.41
2019-01-12T10:30:11.070Z,94.41
2019-01-12T10:31:11.056Z,93.89
2019-01-12T10:32:11.047Z,93.99
2019-01-12T10:33:11.031Z,93.95
2019-01-12T10:34:11.021Z,93.33
2019-01-12T10:35:11.020Z,93.12
2019-01-12T10:36:11.004Z,93.23
2019-01-12T10:37:10.996Z,93.43
2019-01-12T10:38:10.978Z,93.12
2019-01-12T10:39:17.771Z,93.43
2019-01-12T10:40:11.956Z,92.61
2019-01-12T10:41:10.956Z,92.61
2019-01-12T10:42:10.934Z,93.12
2019-01-12T10:43:10.933Z,92.50
2019-01-12T10:44:10.911Z,92.81
2019-01-12T10:45:10.993Z,92.40
2019-01-12T10:46:10.899Z,92.30
2019-01-12T10:47:10.893Z,91.99
2019-01-12T10:48:10.870Z,92.30
2019-01-12T10:49:10.865Z,92.71
2019-01-12T10:50:10.858Z,92.30
2019-01-12T10:51:10.838Z,91.99
2019-01-12T10:52:10.824Z,92.19
2019-01-12T10:53:10.814Z,92.09
2019-01-12T10:54:10.807Z,91.53
2019-01-12T10:55:10.791Z,92.15
2019-01-12T10:56:10.783Z,91.78
2019-01-12T10:57:10.774Z,91.42
2019-01-12T10:58:10.770Z,91.32
2019-01-12T10:59:10.755Z,91.88
2019-01-12T11:00:10.737Z,91.74
2019-01-12T11:01:10.736Z,91.74
2019-01-12T11:02:10.720Z,91.74
2019-01-12T11:03:10.705Z,91.63
2019-01-12T11:04:10.697Z,91.88
2019-01-12T11:05:10.702Z,91.94
2019-01-12T11:06:10.678Z,92.36
2019-01-12T11:07:10.663Z,92.57
2019-01-12T11:08:10.652Z,92.25
2019-01-12T11:09:10.641Z,92.15
2019-01-12T11:10:10.633Z,92.30
2019-01-12T11:11:10.622Z,91.94
2019-01-12T11:12:10.609Z,92.25
2019-01-12T11:13:10.597Z,92.09
2019-01-12T11:14:10.592Z,92.15
2019-01-12T11:15:10.579Z,91.94
2019-01-12T11:16:10.572Z,92.05
2019-01-12T11:17:10.566Z,92.25
2019-01-12T11:18:10.545Z,91.88
2019-01-12T11:19:10.531Z,91.53
2019-01-12T11:20:10.523Z,91.42
2019-01-12T11:21:10.531Z,91.53
2019-01-12T11:22:10.512Z,91.53
2019-01-12T11:23:10.506Z,90.80
2019-01-12T11:24:10.484Z,90.91
2019-01-12T11:25:10.467Z,90.70
2019-01-12T11:26:10.457Z,90.91
2019-01-12T11:27:12.316Z,90.39
2019-01-12T11:28:10.432Z,89.52
2019-01-12T11:29:10.424Z,89.22
2019-01-12T11:30:10.412Z,89.32
2019-01-12T11:31:10.402Z,89.32
2019-01-12T11:32:10.431Z,89.11
2019-01-12T11:33:10.380Z,88.59
2019-01-12T11:34:10.373Z,89.42
2019-01-12T11:35:10.360Z,88.28
2019-01-12T11:36:10.355Z,89.42
2019-01-12T11:37:10.336Z,89.11
2019-01-12T11:38:10.330Z,89.32
2019-01-12T11:39:10.319Z,89.01
2019-01-12T11:40:10.310Z,89.25
2019-01-12T11:41:10.293Z,88.80
2019-01-12T11:42:10.279Z,89.22
2019-01-12T11:43:10.273Z,89.42
2019-01-12T11:44:10.259Z,89.67
2019-01-12T11:45:10.260Z,88.70
2019-01-12T11:46:10.253Z,89.15
2019-01-12T11:47:10.228Z,89.52
2019-01-12T11:48:10.218Z,89.56
2019-01-12T11:49:10.216Z,89.32
2019-01-12T11:50:10.196Z,89.67
2019-01-12T11:51:10.195Z,88.84
2019-01-12T11:52:10.183Z,89.52
2019-01-12T11:53:10.177Z,88.39
2019-01-12T11:54:10.161Z,87.91
2019-01-12T11:55:10.145Z,86.83
2019-01-12T11:56:10.176Z,86.83
2019-01-12T11:57:10.133Z,87.08
2019-01-12T11:58:10.121Z,86.52
2019-01-12T11:59:10.111Z,86.94
2019-01-12T12:00:10.146Z,86.83
2019-01-12T12:01:10.083Z,87.15
2019-01-12T12:02:10.084Z,87.25
2019-01-12T12:03:10.067Z,86.63
2019-01-12T12:04:10.054Z,86.73
2019-01-12T12:05:10.041Z,86.73
2019-01-12T12:06:10.030Z,86.73
2019-01-12T12:07:10.018Z,86.77
2019-01-12T12:08:10.011Z,86.63
2019-01-12T12:09:10.001Z,86.83
2019-01-12T12:10:09.994Z,87.18
2019-01-12T12:11:09.978Z,86.57
2019-01-12T12:12:09.968Z,87.15
2019-01-12T12:13:09.953Z,86.77
2019-01-12T12:14:09.944Z,87.08
2019-01-12T12:15:09.929Z,87.18
2019-01-12T12:16:10.149Z,86.94
2019-01-12T12:17:09.909Z,86.83
2019-01-12T12:18:09.896Z,87.39
2019-01-12T12:19:09.887Z,87.04
2019-01-12T12:20:09.872Z,86.63
2019-01-12T12:21:09.865Z,86.52
2019-01-12T12:22:09.847Z,86.63
2019-01-12T12:23:09.836Z,86.52
2019-01-12T12:24:09.859Z,86.73
2019-01-12T12:25:09.846Z,85.91
2019-01-12T12:26:09.813Z,86.01
2019-01-12T12:27:09.794Z,86.21
2019-01-12T12:28:09.782Z,86.21
2019-01-12T12:29:09.770Z,85.80
2019-01-12T12:30:09.759Z,85.60
2019-01-12T12:31:09.748Z,85.18
2019-01-12T12:32:09.740Z,85.91
2019-01-12T12:33:09.727Z,85.60
2019-01-12T12:34:09.716Z,85.60
2019-01-12T12:35:09.705Z,85.91
2019-01-12T12:36:09.702Z,85.60
2019-01-12T12:37:09.684Z,85.70
2019-01-12T12:38:09.673Z,85.60
2019-01-12T12:39:09.663Z,85.70
2019-01-12T12:40:09.650Z,85.39
2019-01-12T12:41:09.646Z,85.39
2019-01-12T12:42:09.629Z,85.08
2019-01-12T12:43:09.621Z,85.08
2019-01-12T12:44:09.608Z,85.08
2019-01-12T12:45:09.596Z,85.18
2019-01-12T12:46:09.586Z,85.91
2019-01-12T12:47:09.577Z,85.39
2019-01-12T12:48:09.565Z,85.60
2019-01-12T12:49:09.558Z,85.28
2019-01-12T12:50:09.547Z,84.15
2019-01-12T12:51:09.528Z,85.28
2019-01-12T12:52:09.520Z,85.08